Time;durP1;ratioP1;P1;durP2;ratioP2;P2;SDS_P1;SDS_P2;PMS_P1;PMS_P2;Temp;Humidity;BMP_temperature;BMP_pressure;BME280_temperature;BME280_humidity;BME280_pressure;Samples;Min_cycle;Max_cycle;Signal;HPM_P1;HPM_P2
2022/03/21 00:01:22;;;;;;;30.27;16.63;;;6.10;95.10;;;;;;5102877;28;20119;-65
2022/03/21 00:03:47;;;;;;;31.63;17.98;;;6.10;95.20;;;;;;5105764;28;20062;-66
2022/03/21 00:06:13;;;;;;;;;;;6.20;95.20;;;;;;5104801;28;20111;-66
2022/03/21 00:08:39;;;;;;;29.40;15.40;;;6.10;95.10;;;;;;5103580;28;19920;-65
2022/03/21 00:11:05;;;;;;;29.85;16.58;;;6.10;95.10;;;;;;5099848;28;20341;-66
2022/03/21 00:13:31;;;;;;;28.35;15.85;;;6.10;95.00;;;;;;5102164;28;20063;-65
2022/03/21 00:15:58;;;;;;;29.75;15.93;;;6.10;94.90;;;;;;5104492;28;20036;-64
2022/03/21 00:18:25;;;;;;;26.05;15.15;;;6.10;95.10;;;;;;5093385;28;20043;-64
2022/03/21 00:20:56;;;;;;;34.70;17.25;;;6.10;94.70;;;;;;5089573;28;20408;-65
2022/03/21 00:23:24;;;;;;;29.30;15.90;;;6.10;94.60;;;;;;5085664;28;20039;-65
2022/03/21 00:25:50;;;;;;;28.40;15.15;;;6.20;94.50;;;;;;5090412;28;20132;-65
2022/03/21 00:28:17;;;;;;;26.13;15.23;;;6.20;94.50;;;;;;5089505;28;20368;-64
2022/03/21 00:30:43;;;;;;;28.60;15.05;;;6.20;94.20;;;;;;5087337;28;20097;-64
2022/03/21 00:33:11;;;;;;;27.23;14.82;;;6.20;94.40;;;;;;5086831;28;20081;-64
2022/03/21 00:35:37;;;;;;;29.50;15.90;;;6.20;93.90;;;;;;5089014;28;20052;-63
2022/03/21 00:38:05;;;;;;;29.42;15.50;;;6.30;93.50;;;;;;5088924;28;20122;-64
2022/03/21 00:40:31;;;;;;;28.10;14.52;;;6.30;93.10;;;;;;5088507;28;20031;-64
2022/03/21 00:42:58;;;;;;;32.33;16.15;;;6.30;93.10;;;;;;5088364;28;20161;-65
2022/03/21 00:45:25;;;;;;;27.88;16.00;;;6.40;93.00;;;;;;5086443;28;20044;-65
2022/03/21 00:47:52;;;;;;;33.03;16.50;;;6.40;92.60;;;;;;5084496;28;20058;-64
2022/03/21 00:50:20;;;;;;;27.15;15.20;;;6.40;92.50;;;;;;5092990;28;20039;-64
2022/03/21 00:52:51;;;;;;;27.83;15.48;;;6.40;92.50;;;;;;5092016;28;20047;-65
2022/03/21 00:55:20;;;;;;;28.35;14.48;;;6.40;91.90;;;;;;5094275;28;20507;-64
2022/03/21 00:57:46;;;;;;;24.63;13.85;;;6.50;91.90;;;;;;5096415;28;20073;-64
2022/03/21 01:00:21;;;;;;;27.98;14.63;;;6.50;92.00;;;;;;5090181;28;20036;-64
2022/03/21 01:02:47;;;;;;;27.90;14.98;;;6.50;91.50;;;;;;5084719;28;20039;-64
2022/03/21 01:05:13;;;;;;;27.70;14.80;;;6.50;91.30;;;;;;5087882;28;20039;-64
2022/03/21 01:07:40;;;;;;;29.58;16.50;;;6.50;91.50;;;;;;5088053;28;20039;-65
2022/03/21 01:10:09;;;;;;;24.55;14.73;;;6.50;91.70;;;;;;5082949;28;20062;-64
2022/03/21 01:12:34;;;;;;;22.13;13.00;;;6.40;91.30;;;;;;5081549;28;20399;-64
2022/03/21 01:15:01;;;;;;;27.75;13.95;;;6.50;91.40;;;;;;5081612;28;20040;-64
2022/03/21 01:17:27;;;;;;;25.75;14.45;;;6.40;91.30;;;;;;5086668;28;20075;-64
2022/03/21 01:19:53;;;;;;;28.00;14.65;;;6.50;91.40;;;;;;5087893;28;20039;-64
2022/03/21 01:22:19;;;;;;;24.75;14.23;;;6.50;91.10;;;;;;5086477;28;20039;-64
2022/03/21 01:24:44;;;;;;;;;;;6.40;90.90;;;;;;5088268;28;20044;-64
2022/03/21 01:27:10;;;;;;;27.42;14.27;;;6.40;90.70;;;;;;5086071;28;19936;-65
2022/03/21 01:29:36;;;;;;;26.83;13.98;;;6.40;91.10;;;;;;5083352;28;20047;-66
2022/03/21 01:32:02;;;;;;;;;;;6.40;91.10;;;;;;5082029;28;20036;-65
2022/03/21 01:34:28;;;;;;;29.10;16.00;;;6.30;91.20;;;;;;5084535;28;19943;-65
2022/03/21 01:36:54;;;;;;;24.48;14.02;;;6.30;91.40;;;;;;5084428;28;20508;-65
2022/03/21 01:39:20;;;;;;;;;;;6.30;91.20;;;;;;5084906;28;20043;-65
2022/03/21 01:41:46;;;;;;;27.27;13.80;;;6.30;91.30;;;;;;5083341;28;19998;-65
2022/03/21 01:44:12;;;;;;;34.03;16.42;;;6.30;91.40;;;;;;5084396;28;20036;-65
2022/03/21 01:46:39;;;;;;;29.38;14.85;;;6.20;91.90;;;;;;5083483;28;20558;-65
2022/03/21 01:49:06;;;;;;;28.92;14.85;;;6.20;91.80;;;;;;5084612;28;20040;-65
2022/03/21 01:51:32;;;;;;;28.90;15.25;;;6.20;92.00;;;;;;5083763;28;20032;-65
2022/03/21 01:56:46;;;;;;;27.08;14.85;;;6.20;91.90;;;;;;5084296;28;20039;-65
2022/03/21 01:59:12;;;;;;;27.67;15.10;;;6.10;91.90;;;;;;5084251;28;20044;-65
2022/03/21 02:01:39;;;;;;;29.20;14.65;;;6.10;91.90;;;;;;5082668;28;20048;-65
2022/03/21 02:04:06;;;;;;;27.27;15.05;;;6.10;91.70;;;;;;5083108;28;20040;-66
2022/03/21 02:06:32;;;;;;;30.50;14.90;;;6.10;91.80;;;;;;5081779;28;20040;-66
2022/03/21 02:08:59;;;;;;;27.30;14.15;;;6.10;91.90;;;;;;5083765;28;20028;-65
2022/03/21 02:11:26;;;;;;;26.40;14.77;;;6.10;91.50;;;;;;5084982;28;20043;-65
2022/03/21 02:13:59;;;;;;;28.75;14.20;;;6.00;91.70;;;;;;5083723;28;20044;-63
2022/03/21 02:16:26;;;;;;;25.58;13.63;;;6.10;91.40;;;;;;5083118;28;20623;-64
2022/03/21 02:18:52;;;;;;;26.23;13.52;;;6.00;91.10;;;;;;5083182;28;20050;-64
2022/03/21 02:21:50;;;;;;;26.02;13.82;;;6.00;91.90;;;;;;5087991;28;20094;-64
2022/03/21 02:24:33;;;;;;;23.88;12.98;;;5.90;91.40;;;;;;5079282;28;20131;-64
2022/03/21 02:27:01;;;;;;;30.90;14.98;;;5.90;91.20;;;;;;5096108;28;20071;-64
2022/03/21 02:29:29;;;;;;;24.80;13.77;;;6.00;90.80;;;;;;5088287;28;20063;-64
2022/03/21 02:31:55;;;;;;;25.85;15.00;;;6.00;91.30;;;;;;5082273;28;20063;-65
2022/03/21 02:34:26;;;;;;;22.80;14.02;;;6.00;90.80;;;;;;5081148;28;20047;-65
2022/03/21 02:37:01;;;;;;;24.83;14.35;;;5.90;90.90;;;;;;5083894;28;20097;-64
2022/03/21 02:39:28;;;;;;;26.15;13.38;;;5.90;90.50;;;;;;5082872;28;20128;-65
2022/03/21 02:41:54;;;;;;;28.65;14.48;;;6.00;90.30;;;;;;5086439;28;20067;-65
2022/03/21 02:44:20;;;;;;;23.90;13.35;;;6.00;90.00;;;;;;5086255;28;20539;-65
2022/03/21 02:46:46;;;;;;;26.35;14.63;;;6.00;90.20;;;;;;5087987;28;20043;-63
2022/03/21 02:49:12;;;;;;;;;;;6.10;89.90;;;;;;5089072;28;20044;-64
2022/03/21 02:51:40;;;;;;;25.15;13.05;;;6.10;90.10;;;;;;5088637;28;19920;-64
2022/03/21 02:54:06;;;;;;;21.02;12.18;;;6.00;90.10;;;;;;5089024;28;20058;-65
2022/03/21 02:56:32;;;;;;;24.73;13.40;;;5.90;91.80;;;;;;5087882;28;20032;-64
2022/03/21 02:58:58;;;;;;;20.60;12.63;;;5.80;91.60;;;;;;5086888;28;20092;-64
2022/03/21 03:01:24;;;;;;;25.38;12.80;;;5.70;91.20;;;;;;5086257;28;20131;-64
2022/03/21 03:03:49;;;;;;;23.60;12.45;;;5.80;91.20;;;;;;5085912;28;20141;-64
2022/03/21 03:06:15;;;;;;;25.98;13.70;;;5.70;92.40;;;;;;5086550;28;20032;-64
2022/03/21 03:08:41;;;;;;;;;;;5.60;92.60;;;;;;5085368;28;20036;-64
2022/03/21 03:11:07;;;;;;;27.13;13.48;;;5.60;92.30;;;;;;5080402;28;19922;-64
2022/03/21 03:13:32;;;;;;;24.13;12.77;;;5.60;91.50;;;;;;5085110;28;20139;-65
2022/03/21 03:15:58;;;;;;;23.27;13.20;;;5.70;90.60;;;;;;5086860;28;20043;-64
2022/03/21 03:18:24;;;;;;;27.10;14.48;;;5.70;91.50;;;;;;5085253;28;20097;-64
2022/03/21 03:20:52;;;;;;;26.90;13.68;;;5.70;91.50;;;;;;5086385;28;20396;-64
2022/03/21 03:23:20;;;;;;;24.48;13.13;;;5.80;89.30;;;;;;5085163;28;20093;-65
2022/03/21 03:25:46;;;;;;;21.40;12.15;;;5.90;90.20;;;;;;5086355;28;20040;-64
2022/03/21 03:28:15;;;;;;;23.08;12.80;;;5.80;90.50;;;;;;5085651;28;20032;-65
2022/03/21 03:30:42;;;;;;;22.58;13.45;;;5.70;90.30;;;;;;5084027;28;20129;-64
2022/03/21 03:33:08;;;;;;;24.27;12.90;;;5.70;90.60;;;;;;5067126;28;20093;-64
2022/03/21 03:35:35;;;;;;;22.00;12.43;;;5.70;90.60;;;;;;5085138;28;20044;-65
2022/03/21 03:38:02;;;;;;;22.58;12.15;;;5.80;89.30;;;;;;5085187;28;20036;-65
2022/03/21 03:40:28;;;;;;;22.67;12.90;;;5.90;89.40;;;;;;5085354;28;20119;-65
2022/03/21 03:42:53;;;;;;;26.30;11.98;;;5.90;90.00;;;;;;5087168;28;20066;-64
2022/03/21 03:45:19;;;;;;;23.50;13.23;;;5.70;90.40;;;;;;5090286;28;20036;-65
2022/03/21 03:47:45;;;;;;;24.73;13.50;;;5.60;90.90;;;;;;5091102;28;20040;-64
2022/03/21 03:50:11;;;;;;;23.60;12.90;;;5.50;91.30;;;;;;5091069;28;20051;-65
2022/03/21 03:52:37;;;;;;;;;;;5.50;91.20;;;;;;5087997;28;20137;-63
2022/03/21 03:55:03;;;;;;;25.43;12.67;;;5.40;91.70;;;;;;5087707;28;19952;-64
2022/03/21 03:57:29;;;;;;;22.05;12.15;;;5.40;92.10;;;;;;5089220;28;20047;-64
2022/03/21 03:59:54;;;;;;;22.70;12.70;;;5.30;92.70;;;;;;5089730;28;20070;-65
2022/03/21 04:02:20;;;;;;;23.15;13.10;;;5.20;92.80;;;;;;5088233;28;20067;-65
2022/03/21 04:04:46;;;;;;;23.15;12.57;;;5.20;92.10;;;;;;5091518;28;20032;-65
2022/03/21 04:07:11;;;;;;;;;;;5.30;91.80;;;;;;5090617;28;20048;-65
2022/03/21 04:09:37;;;;;;;25.63;12.32;;;5.30;91.30;;;;;;5085257;28;19959;-64
2022/03/21 04:12:04;;;;;;;22.60;12.57;;;5.30;91.00;;;;;;5087294;28;20469;-65
2022/03/21 04:14:29;;;;;;;25.80;13.43;;;5.30;90.90;;;;;;5090453;28;20101;-64
2022/03/21 04:16:55;;;;;;;24.20;12.43;;;5.30;91.20;;;;;;5089590;28;20044;-64
2022/03/21 04:19:21;;;;;;;25.77;13.15;;;5.30;92.40;;;;;;5090661;28;20040;-64
2022/03/21 04:21:47;;;;;;;26.38;12.63;;;5.20;91.20;;;;;;5085491;28;20078;-64
2022/03/21 04:24:13;;;;;;;19.73;11.65;;;5.20;91.40;;;;;;5068739;28;20072;-64
2022/03/21 04:26:38;;;;;;;24.83;12.63;;;5.20;91.10;;;;;;5086432;28;20067;-65
2022/03/21 04:29:04;;;;;;;23.30;12.48;;;5.20;91.80;;;;;;5090295;28;20041;-65
2022/03/21 04:31:31;;;;;;;;;;;5.10;92.10;;;;;;5089093;28;20302;-64
2022/03/21 04:33:57;;;;;;;20.20;11.80;;;5.00;93.10;;;;;;5090335;28;19923;-65
2022/03/21 04:36:23;;;;;;;22.00;11.98;;;4.80;93.50;;;;;;5087181;28;20055;-65
2022/03/21 04:38:49;;;;;;;22.98;12.40;;;4.80;93.60;;;;;;5085853;28;20035;-65
2022/03/21 04:41:15;;;;;;;23.13;11.75;;;4.70;93.80;;;;;;5083688;28;20119;-65
2022/03/21 04:43:41;;;;;;;22.02;11.80;;;4.70;93.70;;;;;;5085434;28;20122;-65
2022/03/21 04:46:06;;;;;;;;;;;4.60;93.20;;;;;;5086053;28;20032;-65
2022/03/21 04:48:33;;;;;;;20.42;10.88;;;4.60;93.80;;;;;;5076353;28;20024;-65
2022/03/21 04:50:58;;;;;;;21.90;12.48;;;4.60;93.50;;;;;;5085065;28;20073;-66
2022/03/21 04:53:24;;;;;;;25.65;11.80;;;4.60;93.80;;;;;;5083983;28;20518;-65
2022/03/21 04:55:51;;;;;;;25.08;12.48;;;4.50;93.20;;;;;;5082971;28;20143;-67
2022/03/21 04:58:17;;;;;;;23.33;12.63;;;4.50;93.40;;;;;;5085424;28;20076;-64
2022/03/21 05:00:44;;;;;;;23.50;12.68;;;4.50;94.00;;;;;;5084221;28;20529;-65
2022/03/21 05:03:13;;;;;;;24.40;13.25;;;4.30;94.70;;;;;;5087179;28;20076;-64
2022/03/21 05:05:41;;;;;;;20.77;11.75;;;4.30;94.70;;;;;;5090215;28;20044;-65
2022/03/21 05:08:07;;;;;;;23.15;13.05;;;4.20;95.20;;;;;;5092843;28;20040;-66
2022/03/21 05:10:35;;;;;;;24.27;12.85;;;4.30;94.60;;;;;;5098404;28;20034;-65
2022/03/21 05:13:01;;;;;;;25.90;12.63;;;4.30;94.20;;;;;;5091902;28;20028;-65
2022/03/21 05:15:27;;;;;;;26.25;12.50;;;4.30;95.10;;;;;;5089108;28;20051;-65
2022/03/21 05:17:52;;;;;;;;;;;4.30;94.80;;;;;;5086763;28;20062;-65
2022/03/21 05:20:21;;;;;;;22.10;12.52;;;4.30;93.70;;;;;;5092373;28;20010;-65
2022/03/21 05:31:18;;;;;;;20.67;12.32;;;4.60;93.70;;;;;;5088459;28;20511;-65
2022/03/21 05:36:34;;;;;;;23.67;12.20;;;4.60;93.70;;;;;;5090544;28;20160;-64
2022/03/21 05:39:03;;;;;;;24.65;12.27;;;4.60;93.70;;;;;;5091278;28;20900;-64
2022/03/21 05:41:29;;;;;;;25.08;12.90;;;4.60;94.40;;;;;;5092078;28;20040;-66
2022/03/21 05:43:55;;;;;;;24.08;12.60;;;4.60;94.50;;;;;;5086611;28;20031;-62
2022/03/21 05:46:41;;;;;;;25.13;12.85;;;4.70;95.10;;;;;;5087578;28;20040;-63
2022/03/21 05:49:13;;;;;;;27.25;13.07;;;4.80;94.30;;;;;;5088207;28;20040;-64
2022/03/21 05:51:49;;;;;;;26.77;13.13;;;4.80;94.90;;;;;;5087699;28;20573;-64
2022/03/21 05:54:22;;;;;;;24.48;13.80;;;4.90;95.30;;;;;;5087156;28;20040;-63
2022/03/21 05:56:53;;;;;;;23.50;12.50;;;4.90;94.60;;;;;;5090296;28;20115;-64
2022/03/21 06:02:11;;;;;;;23.80;12.70;;;5.00;93.80;;;;;;5086082;28;20135;-65
2022/03/21 06:04:40;;;;;;;21.25;11.57;;;5.10;93.90;;;;;;5089153;28;20802;-63
2022/03/21 06:07:10;;;;;;;21.30;11.82;;;5.10;93.40;;;;;;5087842;28;20040;-64
2022/03/21 06:09:49;;;;;;;24.52;13.35;;;5.20;93.30;;;;;;5080921;28;20382;-64
2022/03/21 06:12:15;;;;;;;24.23;13.00;;;5.30;93.20;;;;;;5084518;28;20044;-64
2022/03/21 06:14:41;;;;;;;22.00;12.10;;;5.40;92.00;;;;;;5086321;28;20104;-64
2022/03/21 06:17:11;;;;;;;25.50;12.10;;;5.50;93.00;;;;;;5085954;28;20397;-65
2022/03/21 06:19:45;;;;;;;;;;;5.90;93.50;;;;;;5088007;28;20040;-65
2022/03/21 06:22:17;;;;;;;26.77;12.18;;;6.20;92.90;;;;;;5085291;28;19923;-64
2022/03/21 06:24:46;;;;;;;22.13;12.35;;;6.50;91.10;;;;;;5086139;28;20028;-64
2022/03/21 06:27:24;;;;;;;21.52;12.52;;;6.90;90.60;;;;;;5085347;28;20040;-65
2022/03/21 06:29:55;;;;;;;21.83;12.18;;;6.90;90.50;;;;;;5085890;28;20067;-64
2022/03/21 06:32:54;;;;;;;23.23;13.20;;;7.00;89.90;;;;;;5084975;28;20039;-64
2022/03/21 06:35:40;;;;;;;21.95;11.35;;;7.30;88.90;;;;;;5088006;28;20705;-64
2022/03/21 06:38:10;;;;;;;19.67;10.98;;;7.70;90.00;;;;;;5089310;28;20042;-64
2022/03/21 06:40:44;;;;;;;23.90;11.68;;;7.90;90.80;;;;;;5088151;28;20044;-65
2022/03/21 06:43:15;;;;;;;23.83;11.50;;;8.10;90.00;;;;;;5087551;28;20062;-65
2022/03/21 06:45:47;;;;;;;22.92;12.20;;;8.20;87.60;;;;;;5075553;28;20118;-66
2022/03/21 06:48:14;;;;;;;21.80;12.00;;;8.20;85.40;;;;;;5083690;28;20097;-66
2022/03/21 06:50:39;;;;;;;21.63;11.75;;;8.20;86.40;;;;;;5084182;28;20044;-65
2022/03/21 06:53:05;;;;;;;;;;;8.40;84.50;;;;;;5083299;28;20559;-66
2022/03/21 06:55:30;;;;;;;22.23;11.07;;;8.60;83.00;;;;;;5084001;28;20575;-65
2022/03/21 06:57:56;;;;;;;;;;;8.70;84.20;;;;;;5084139;28;20415;-65
2022/03/21 07:00:22;;;;;;;23.33;12.50;;;8.90;82.90;;;;;;5079878;28;19923;-65
2022/03/21 07:02:47;;;;;;;;;;;9.30;82.40;;;;;;5078155;28;20677;-66
2022/03/21 07:05:13;;;;;;;25.98;11.77;;;9.50;82.80;;;;;;5083108;28;19920;-66
2022/03/21 07:07:38;;;;;;;;;;;9.70;82.90;;;;;;5085016;28;20539;-65
2022/03/21 07:10:05;;;;;;;22.35;12.68;;;10.00;78.70;;;;;;5083201;28;19962;-65
2022/03/21 07:12:34;;;;;;;18.55;11.20;;;10.10;81.60;;;;;;5083160;28;20062;-65
2022/03/21 07:15:00;;;;;;;21.40;12.20;;;10.40;81.30;;;;;;5083648;28;20040;-66
2022/03/21 07:17:25;;;;;;;;;;;10.70;81.50;;;;;;5081058;28;20102;-66
2022/03/21 07:19:51;;;;;;;21.20;12.32;;;10.70;78.70;;;;;;5084528;28;19920;-66
2022/03/21 07:22:16;;;;;;;;;;;10.70;78.60;;;;;;5083064;28;20042;-65
2022/03/21 07:24:42;;;;;;;23.88;11.70;;;10.70;80.70;;;;;;5083803;28;19923;-65
2022/03/21 07:27:07;;;;;;;;;;;10.70;83.00;;;;;;5083890;28;20061;-65
2022/03/21 07:29:34;;;;;;;24.02;12.68;;;10.70;80.60;;;;;;5087626;28;19920;-65
2022/03/21 07:31:59;;;;;;;21.35;11.93;;;10.90;78.40;;;;;;5086528;28;20060;-65
2022/03/21 07:34:25;;;;;;;;;;;11.20;77.60;;;;;;5088448;28;20070;-65
2022/03/21 07:36:51;;;;;;;21.27;11.93;;;11.30;78.30;;;;;;5087459;28;19923;-65
2022/03/21 07:39:16;;;;;;;;;;;11.70;78.50;;;;;;5089917;28;20059;-66
2022/03/21 07:41:43;;;;;;;21.45;11.35;;;11.80;74.40;;;;;;5079380;28;19919;-66
2022/03/21 07:44:08;;;;;;;20.83;12.43;;;11.80;74.40;;;;;;5093145;28;20039;-66
2022/03/21 07:49:18;;;;;;;19.35;11.77;;;11.40;73.50;;;;;;5092468;28;19923;-65
2022/03/21 07:51:44;;;;;;;;;;;11.40;75.40;;;;;;5089952;28;20100;-66
2022/03/21 07:54:14;;;;;;;21.55;10.90;;;11.30;73.60;;;;;;5087330;28;19928;-67
2022/03/21 07:56:40;;;;;;;20.40;11.35;;;11.40;72.30;;;;;;5082386;28;20043;-66
2022/03/21 07:59:06;;;;;;;20.73;11.68;;;11.20;71.60;;;;;;5085621;28;20345;-66
2022/03/21 08:01:32;;;;;;;;;;;11.30;70.40;;;;;;5090919;28;20047;-68
2022/03/21 08:04:00;;;;;;;21.70;11.75;;;11.60;68.70;;;;;;5096806;27;19926;-65
2022/03/21 08:06:26;;;;;;;24.13;11.63;;;12.20;70.40;;;;;;5095755;28;20074;-65
2022/03/21 08:08:54;;;;;;;22.52;11.68;;;12.70;67.30;;;;;;5092706;28;20043;-67
2022/03/21 08:11:21;;;;;;;22.25;12.35;;;12.70;66.30;;;;;;5094399;28;20097;-68
2022/03/21 08:13:49;;;;;;;21.40;11.65;;;12.40;66.80;;;;;;5092194;28;20036;-67
2022/03/21 08:16:19;;;;;;;19.55;11.05;;;12.10;66.40;;;;;;5096192;28;20059;-67
2022/03/21 08:18:51;;;;;;;19.10;11.25;;;12.50;66.20;;;;;;5096625;28;20066;-67
2022/03/21 08:21:19;;;;;;;22.25;11.82;;;13.10;64.50;;;;;;5099165;28;20032;-65
2022/03/21 08:23:46;;;;;;;17.38;11.07;;;13.40;61.30;;;;;;5088842;28;20047;-68
2022/03/21 08:26:12;;;;;;;17.25;10.90;;;13.70;61.70;;;;;;5084063;28;20067;-66
2022/03/21 08:28:37;;;;;;;;;;;14.50;59.30;;;;;;5087275;28;20074;-66
2022/03/21 08:31:03;;;;;;;19.42;11.75;;;14.50;58.20;;;;;;5086112;28;19946;-65
2022/03/21 08:33:28;;;;;;;;;;;14.40;59.10;;;;;;5086244;28;20036;-65
2022/03/21 08:35:54;;;;;;;19.15;10.85;;;14.20;58.60;;;;;;5086314;28;19919;-68
2022/03/21 08:38:20;;;;;;;19.52;11.93;;;13.60;61.20;;;;;;5085138;28;20032;-65
2022/03/21 08:40:46;;;;;;;;;;;13.00;62.40;;;;;;5084281;28;20028;-66
2022/03/21 08:43:11;;;;;;;18.20;11.18;;;12.40;62.80;;;;;;5083776;28;19938;-67
2022/03/21 08:45:37;;;;;;;;;;;12.00;66.50;;;;;;5086266;28;20043;-65
2022/03/21 08:48:04;;;;;;;20.52;11.38;;;11.70;65.70;;;;;;5085837;28;19920;-66
2022/03/21 08:50:30;;;;;;;21.52;11.80;;;11.50;66.90;;;;;;5085958;28;20044;-64
2022/03/21 08:52:58;;;;;;;22.33;12.13;;;11.70;68.10;;;;;;5085384;28;20063;-66
2022/03/21 08:55:24;;;;;;;19.20;11.07;;;11.60;68.10;;;;;;5086135;28;20044;-65
2022/03/21 08:57:51;;;;;;;25.48;11.50;;;11.70;67.90;;;;;;5085871;28;20082;-66
2022/03/21 09:00:17;;;;;;;22.27;12.52;;;11.60;67.80;;;;;;5084020;28;20057;-66
2022/03/21 09:02:46;;;;;;;;;;;11.60;68.40;;;;;;5085546;28;20040;-68
2022/03/21 09:05:13;;;;;;;23.35;12.82;;;11.80;69.40;;;;;;5085267;28;19934;-65
2022/03/21 09:07:39;;;;;;;22.63;12.05;;;12.00;69.10;;;;;;5085761;28;20044;-67
2022/03/21 09:10:06;;;;;;;19.70;11.77;;;12.20;71.50;;;;;;5080352;28;20028;-67
2022/03/21 09:12:32;;;;;;;20.77;11.90;;;12.30;70.70;;;;;;5084930;28;20044;-67
2022/03/21 09:14:57;;;;;;;;;;;12.50;68.40;;;;;;5087606;28;20055;-63
2022/03/21 09:17:24;;;;;;;23.35;11.55;;;12.50;69.90;;;;;;5087144;28;20277;-65
2022/03/21 09:19:50;;;;;;;21.92;12.60;;;12.60;68.90;;;;;;5088258;28;20484;-64
2022/03/21 09:22:16;;;;;;;;;;;12.70;67.80;;;;;;5085676;28;20110;-65
2022/03/21 09:24:42;;;;;;;22.15;11.90;;;12.80;68.70;;;;;;5087819;28;20445;-65
2022/03/21 09:27:07;;;;;;;22.35;12.70;;;12.90;68.80;;;;;;5086570;28;20131;-65
2022/03/21 09:29:33;;;;;;;;;;;12.80;65.80;;;;;;5087216;28;20036;-65
2022/03/21 09:32:06;;;;;;;22.10;11.80;;;12.50;68.50;;;;;;5085691;28;19916;-65
2022/03/21 09:34:33;;;;;;;20.33;12.20;;;12.60;69.30;;;;;;5086762;28;20259;-65
2022/03/21 09:37:07;;;;;;;26.83;12.98;;;12.80;70.00;;;;;;5071294;28;20104;-65
2022/03/21 09:39:33;;;;;;;19.55;11.82;;;13.00;69.60;;;;;;5082997;28;20069;-65
2022/03/21 09:42:05;;;;;;;26.67;11.73;;;13.20;70.50;;;;;;5086730;28;20048;-65
2022/03/21 09:44:35;;;;;;;18.55;11.95;;;13.50;71.20;;;;;;5087369;28;20048;-64
2022/03/21 09:49:58;;;;;;;22.13;12.63;;;13.70;68.10;;;;;;5090030;28;20072;-66
2022/03/21 09:52:24;;;;;;;;;;;13.80;68.80;;;;;;5091386;28;20071;-66
2022/03/21 09:54:53;;;;;;;21.40;11.25;;;13.70;65.80;;;;;;5094124;28;19916;-66
2022/03/21 09:57:19;;;;;;;22.17;12.68;;;13.70;68.40;;;;;;5083306;28;20115;-66
2022/03/21 09:59:45;;;;;;;;;;;13.80;68.00;;;;;;5088384;28;20051;-66
2022/03/21 10:02:17;;;;;;;20.08;11.73;;;13.90;66.90;;;;;;5083899;28;19923;-66
2022/03/21 10:04:43;;;;;;;21.98;12.32;;;13.90;67.80;;;;;;5083090;28;20032;-66
2022/03/21 10:07:10;;;;;;;20.20;12.45;;;14.00;68.40;;;;;;5084607;28;20048;-66
2022/03/21 10:09:36;;;;;;;22.40;12.30;;;14.10;70.00;;;;;;5076518;28;20601;-67
2022/03/21 10:12:08;;;;;;;;;;;14.10;67.70;;;;;;5084913;28;20036;-66
2022/03/21 10:14:36;;;;;;;23.98;14.23;;;14.10;66.60;;;;;;5094506;28;19920;-65
2022/03/21 10:17:09;;;;;;;21.05;12.75;;;13.90;66.00;;;;;;5090984;28;20044;-65
2022/03/21 10:19:46;;;;;;;26.33;14.95;;;13.90;66.80;;;;;;5085547;28;20036;-65
2022/03/21 10:22:15;;;;;;;24.55;13.07;;;13.90;68.90;;;;;;5085480;28;20750;-65
2022/03/21 10:24:46;;;;;;;22.08;13.60;;;14.00;67.60;;;;;;5083936;28;20491;-65
2022/03/21 10:27:39;;;;;;;28.17;12.70;;;13.90;65.70;;;;;;5084270;28;20059;-65
2022/03/21 10:30:08;;;;;;;24.73;13.82;;;14.00;67.80;;;;;;5084285;28;20085;-64
2022/03/21 10:32:57;;;;;;;22.80;12.45;;;13.90;66.80;;;;;;5080206;28;20037;-64
2022/03/21 10:35:24;;;;;;;26.15;13.45;;;13.90;65.60;;;;;;5083792;28;20043;-69
2022/03/21 10:37:51;;;;;;;25.17;13.48;;;14.00;67.80;;;;;;5084121;28;20035;-66
2022/03/21 10:40:27;;;;;;;23.20;12.82;;;14.10;67.10;;;;;;5086428;28;20043;-65
2022/03/21 10:43:05;;;;;;;27.90;12.80;;;13.90;65.60;;;;;;5083167;28;20043;-65
2022/03/21 10:45:45;;;;;;;21.65;12.55;;;14.00;67.70;;;;;;5084924;28;20051;-65
2022/03/21 10:48:16;;;;;;;20.88;12.98;;;14.10;66.20;;;;;;5111434;27;20043;-65
2022/03/21 10:50:45;;;;;;;28.30;13.15;;;14.10;65.80;;;;;;5083800;28;20040;-64
2022/03/21 10:53:28;;;;;;;23.75;12.50;;;14.10;65.60;;;;;;5083077;28;20119;-63
2022/03/21 10:56:08;;;;;;;22.55;12.63;;;14.20;65.70;;;;;;5063595;28;20098;-63
2022/03/21 10:58:39;;;;;;;20.08;12.13;;;14.30;67.40;;;;;;5084480;28;20460;-66
2022/03/21 11:01:36;;;;;;;23.48;13.05;;;14.40;67.20;;;;;;5083444;28;20039;-63
2022/03/21 11:04:02;;;;;;;19.55;11.30;;;14.30;64.80;;;;;;5070166;28;20400;-64
2022/03/21 11:06:29;;;;;;;25.75;12.55;;;14.50;67.00;;;;;;5082260;28;20035;-63
2022/03/21 11:08:55;;;;;;;21.60;12.02;;;14.60;67.20;;;;;;5082436;28;20168;-63
2022/03/21 11:11:22;;;;;;;21.92;11.95;;;14.60;66.30;;;;;;5083857;28;20118;-66
2022/03/21 11:13:49;;;;;;;20.38;12.18;;;14.60;66.20;;;;;;5084453;28;20044;-64
2022/03/21 11:16:18;;;;;;;17.90;11.57;;;14.70;67.00;;;;;;5084781;28;20135;-64
2022/03/21 11:18:48;;;;;;;20.13;11.00;;;14.70;66.90;;;;;;5084744;28;20040;-64
2022/03/21 11:21:14;;;;;;;17.70;10.82;;;14.60;66.30;;;;;;5084358;28;20075;-64
2022/03/21 11:23:41;;;;;;;22.58;12.55;;;14.60;65.40;;;;;;5082696;28;20044;-64
2022/03/21 11:26:25;;;;;;;24.50;11.70;;;14.70;66.50;;;;;;5076356;28;20525;-65
2022/03/21 11:28:53;;;;;;;21.13;11.75;;;14.80;66.20;;;;;;5064610;28;20048;-64
2022/03/21 11:31:42;;;;;;;18.55;11.50;;;14.90;66.80;;;;;;5062889;28;20094;-64
2022/03/21 11:34:27;;;;;;;24.80;12.48;;;14.80;65.20;;;;;;5064066;28;20040;-63
2022/03/21 11:36:57;;;;;;;22.67;12.60;;;14.70;65.40;;;;;;5064103;28;20041;-64
2022/03/21 11:39:24;;;;;;;20.65;12.13;;;14.60;64.70;;;;;;5063776;28;20037;-62
2022/03/21 11:42:02;;;;;;;25.35;13.27;;;14.50;65.20;;;;;;5079961;28;20040;-64
2022/03/21 11:44:29;;;;;;;25.05;13.48;;;14.60;66.20;;;;;;5084162;28;20495;-64
2022/03/21 11:47:24;;;;;;;20.85;12.02;;;14.60;65.70;;;;;;5082818;28;20051;-64
2022/03/21 11:49:53;;;;;;;20.30;11.65;;;14.60;65.70;;;;;;5084379;28;20487;-64
2022/03/21 11:52:19;;;;;;;21.33;12.82;;;14.70;67.30;;;;;;5081847;28;20608;-64
2022/03/21 11:54:45;;;;;;;;;;;14.80;66.10;;;;;;5083703;28;20036;-63
2022/03/21 11:57:23;;;;;;;20.58;12.05;;;14.70;64.10;;;;;;5083447;28;19943;-64
2022/03/21 11:59:49;;;;;;;25.55;13.15;;;14.70;66.00;;;;;;5083618;28;20044;-64
2022/03/21 12:02:15;;;;;;;21.95;12.75;;;14.80;68.50;;;;;;5087517;28;20044;-64
2022/03/21 12:04:41;;;;;;;;;;;14.90;64.80;;;;;;5083511;28;20093;-64
2022/03/21 12:07:13;;;;;;;23.98;13.63;;;14.90;64.80;;;;;;5083066;28;19930;-64
2022/03/21 12:09:43;;;;;;;22.75;13.75;;;14.70;64.00;;;;;;5074557;28;20040;-70
2022/03/21 12:12:10;;;;;;;30.58;13.40;;;14.70;65.20;;;;;;5083484;28;20062;-65
2022/03/21 12:14:54;;;;;;;27.73;13.65;;;14.80;66.30;;;;;;5089700;28;20040;-65
2022/03/21 12:17:23;;;;;;;24.17;13.90;;;14.70;64.50;;;;;;5095221;28;20036;-64
2022/03/21 12:19:57;;;;;;;23.75;13.05;;;14.70;65.40;;;;;;5092772;28;20099;-65
2022/03/21 12:25:13;;;;;;;25.00;13.07;;;14.80;66.40;;;;;;5092262;28;20046;-65
2022/03/21 12:27:46;;;;;;;28.08;13.43;;;14.90;65.60;;;;;;5084265;28;20047;-65
2022/03/21 12:30:21;;;;;;;24.05;14.10;;;14.80;65.10;;;;;;5093034;28;20059;-64
2022/03/21 12:33:09;;;;;;;23.30;12.88;;;14.90;65.90;;;;;;5091290;28;20131;-65
2022/03/21 12:35:38;;;;;;;24.55;12.35;;;15.00;65.00;;;;;;5096643;28;20699;-65
2022/03/21 12:38:14;;;;;;;24.85;13.48;;;15.00;64.60;;;;;;5093932;28;20061;-65
2022/03/21 12:40:50;;;;;;;25.58;14.07;;;15.00;64.50;;;;;;5086231;28;20450;-65
2022/03/21 12:43:26;;;;;;;29.10;14.95;;;14.90;65.10;;;;;;5091011;28;20522;-65
2022/03/21 12:46:06;;;;;;;30.75;14.38;;;14.80;63.90;;;;;;5086557;28;20111;-65
2022/03/21 12:48:35;;;;;;;20.65;12.93;;;15.00;65.50;;;;;;5086833;28;20075;-63
2022/03/21 12:51:04;;;;;;;28.23;13.70;;;15.00;63.90;;;;;;5086685;28;20178;-63
2022/03/21 12:53:47;;;;;;;25.83;14.05;;;14.90;64.20;;;;;;5085482;28;20544;-65
2022/03/21 12:56:15;;;;;;;27.42;14.23;;;15.00;65.10;;;;;;5090752;28;20097;-65
2022/03/21 12:58:45;;;;;;;26.90;14.10;;;14.90;64.60;;;;;;5092483;28;20122;-65
2022/03/21 13:01:19;;;;;;;28.65;14.98;;;15.00;66.00;;;;;;5092051;28;20135;-64
2022/03/21 13:03:45;;;;;;;27.02;13.77;;;14.90;64.20;;;;;;5093439;28;20074;-64
2022/03/21 13:11:38;;;;;;;24.52;14.80;;;15.00;65.20;;;;;;5083972;28;20035;-65
2022/03/21 13:14:13;;;;;;;28.95;14.45;;;15.00;64.10;;;;;;5085682;28;20036;-66
2022/03/21 13:16:47;;;;;;;21.70;12.80;;;15.00;65.80;;;;;;5085941;28;20131;-65
2022/03/21 13:19:20;;;;;;;24.10;14.18;;;15.10;66.60;;;;;;5085465;28;20280;-65
2022/03/21 13:21:47;;;;;;;25.85;14.00;;;15.10;64.80;;;;;;5084942;28;20048;-65